Terminal Aerodrome Forecast
Issued by NWS Duluth, MN

Home | Current Version | Previous Version | Text Only | Print | Product List | Glossary On
Versions: 1 2 3 4 5 6 7 8 9 10 11 12 13 14 15 16 17 18 19 20 21 22 23 24 25 26 27 28 29 30 31 32 33 34 35 36
471
FTUS43 KDLH 051140
TAFDLH
TAF
KDLH 051140Z 0512/0612 30006KT P6SM SCT070
     FM051600 22005KT P6SM SCT030 OVC050
      TEMPO 0518/0520 5SM -SN BR SCT015
     FM052000 23012KT 5SM -SN BR SCT015 OVC020
     FM060200 27008KT P6SM -SN BKN015 OVC020=

USA.gov is the U.S. government's official web portal to all federal, state and local government web resources and services.